Time;durP1;ratioP1;P1;durP2;ratioP2;P2;SDS_P1;SDS_P2;PMS_P1;PMS_P2;Temp;Humidity;BMP_temperature;BMP_pressure;BME280_temperature;BME280_humidity;BME280_pressure;Samples;Min_cycle;Max_cycle;Signal;HPM_P1;HPM_P2
2022/05/17 00:02:23;;;;;;;13.32;9.13;;;15.60;99.90;;;;;;5076581;28;20021;-54
2022/05/17 00:04:50;;;;;;;13.52;9.40;;;15.60;99.90;;;;;;5077229;28;20063;-54
2022/05/17 00:07:16;;;;;;;16.00;8.88;;;15.60;99.90;;;;;;5076993;28;20020;-54
2022/05/17 00:09:42;;;;;;;14.82;8.02;;;15.50;99.90;;;;;;5076821;28;20106;-54
2022/05/17 00:12:09;;;;;;;15.07;10.93;;;15.50;99.90;;;;;;5076958;28;20036;-54
2022/05/17 00:14:35;;;;;;;14.20;8.77;;;15.50;99.90;;;;;;5076885;28;20020;-54
2022/05/17 00:17:01;;;;;;;12.30;8.45;;;15.40;99.90;;;;;;5076568;28;20047;-54
2022/05/17 00:19:29;;;;;;;14.90;8.45;;;15.40;99.90;;;;;;5075865;28;20036;-54
2022/05/17 00:21:55;;;;;;;12.50;8.10;;;15.40;99.90;;;;;;5076510;28;20037;-54
2022/05/17 00:24:24;;;;;;;15.27;8.32;;;15.50;99.90;;;;;;5076911;28;20032;-54
2022/05/17 00:26:50;;;;;;;12.00;9.38;;;15.50;99.90;;;;;;5076783;28;20024;-54
2022/05/17 00:29:16;;;;;;;11.10;8.27;;;15.50;99.90;;;;;;5058402;28;20100;-55
2022/05/17 00:31:42;;;;;;;12.68;7.95;;;15.50;99.90;;;;;;5076816;28;20453;-54
2022/05/17 00:34:08;;;;;;;11.50;8.00;;;15.50;99.90;;;;;;5076397;28;20048;-54
2022/05/17 00:36:35;;;;;;;10.68;7.97;;;15.50;99.90;;;;;;5076474;28;20088;-54
2022/05/17 00:39:01;;;;;;;13.57;8.02;;;15.50;99.90;;;;;;5076383;28;20488;-54
2022/05/17 00:41:28;;;;;;;15.52;8.48;;;15.40;99.90;;;;;;5076419;28;20108;-54
2022/05/17 00:46:48;;;;;;;12.45;7.45;;;15.30;99.90;;;;;;5076404;28;20064;-54
2022/05/17 00:49:26;;;;;;;14.40;8.55;;;15.30;99.90;;;;;;5076249;28;20079;-54
2022/05/17 00:51:57;;;;;;;11.10;8.50;;;15.20;99.90;;;;;;5058067;28;20040;-54
2022/05/17 00:54:23;;;;;;;13.52;7.20;;;15.20;99.90;;;;;;5076041;28;20025;-54
2022/05/17 00:57:13;;;;;;;9.63;7.90;;;15.20;99.90;;;;;;5058114;28;20071;-54
2022/05/17 00:59:40;;;;;;;11.93;8.50;;;15.20;99.90;;;;;;5064217;28;20070;-54
2022/05/17 01:02:08;;;;;;;12.27;8.38;;;15.00;99.90;;;;;;5076062;28;20463;-54
2022/05/17 01:04:34;;;;;;;13.55;8.50;;;15.00;99.90;;;;;;5075818;28;20021;-54
2022/05/17 01:07:08;;;;;;;11.25;8.10;;;15.00;99.90;;;;;;5075724;28;20580;-54
2022/05/17 01:09:34;;;;;;;11.95;7.93;;;14.90;99.90;;;;;;5075976;28;20025;-54
2022/05/17 01:12:00;;;;;;;16.67;8.95;;;15.00;99.90;;;;;;5075757;28;20039;-54
2022/05/17 01:17:11;;;;;;;11.40;8.20;;;15.00;99.90;;;;;;5075536;28;20040;-54
2022/05/17 01:19:41;;;;;;;10.25;7.80;;;14.90;99.90;;;;;;5075578;28;20111;-54
2022/05/17 01:22:08;;;;;;;12.65;8.88;;;14.80;99.90;;;;;;5075711;28;20025;-54
2022/05/17 01:24:34;;;;;;;14.00;8.52;;;14.80;99.90;;;;;;5075500;28;20036;-54
2022/05/17 01:27:42;;;;;;;12.25;8.95;;;14.80;99.90;;;;;;5075416;28;20025;-54
2022/05/17 01:30:19;;;;;;;14.90;8.55;;;14.80;99.90;;;;;;4993420;28;20049;-54
2022/05/17 01:32:45;;;;;;;14.45;8.77;;;14.80;99.90;;;;;;4993512;28;20421;-54
2022/05/17 01:35:12;;;;;;;13.55;7.80;;;14.80;99.90;;;;;;4993363;28;20050;-54
2022/05/17 01:37:38;;;;;;;16.25;9.13;;;14.80;99.90;;;;;;4993562;28;20042;-54
2022/05/17 01:40:05;;;;;;;16.15;8.93;;;14.80;99.90;;;;;;4993523;28;20527;-54
2022/05/17 01:42:31;;;;;;;13.90;8.85;;;14.80;99.90;;;;;;4993220;28;20101;-54
2022/05/17 01:44:57;;;;;;;12.65;8.63;;;14.80;99.90;;;;;;4993502;28;20042;-54
2022/05/17 01:47:23;;;;;;;12.75;7.97;;;14.70;99.90;;;;;;4993352;28;20034;-54
2022/05/17 01:49:49;;;;;;;13.98;8.38;;;14.70;99.90;;;;;;4993505;28;20030;-54
2022/05/17 01:52:15;;;;;;;14.45;8.10;;;14.70;99.90;;;;;;4993213;28;20456;-54
2022/05/17 01:54:41;;;;;;;12.38;8.35;;;14.70;99.90;;;;;;4993290;28;20034;-54
2022/05/17 01:57:07;;;;;;;13.43;8.15;;;14.70;99.90;;;;;;4993192;28;20038;-54
2022/05/17 01:59:33;;;;;;;15.38;8.50;;;14.60;99.90;;;;;;4993274;28;20531;-54
2022/05/17 02:01:59;;;;;;;15.48;8.88;;;14.60;99.90;;;;;;4992593;28;20500;-54
2022/05/17 02:04:25;;;;;;;11.27;8.70;;;14.60;99.90;;;;;;5048275;28;20037;-54
2022/05/17 02:06:51;;;;;;;20.80;9.15;;;14.60;99.90;;;;;;5074795;28;20020;-54
2022/05/17 02:09:17;;;;;;;10.63;8.20;;;14.50;99.90;;;;;;5074510;28;20043;-54
2022/05/17 02:11:43;;;;;;;14.90;8.90;;;14.50;99.90;;;;;;5074481;28;20032;-54
2022/05/17 02:14:09;;;;;;;13.50;8.30;;;14.40;99.90;;;;;;5074668;28;20034;-54
2022/05/17 02:16:37;;;;;;;13.55;8.23;;;14.40;99.90;;;;;;5074314;28;20478;-54
2022/05/17 02:19:05;;;;;;;14.63;8.65;;;14.50;99.90;;;;;;5074711;28;20032;-54
2022/05/17 02:21:31;;;;;;;11.23;8.15;;;14.50;99.90;;;;;;5074301;28;20024;-54
2022/05/17 02:23:57;;;;;;;12.15;8.50;;;14.40;99.90;;;;;;5074453;28;20044;-54
2022/05/17 02:26:23;;;;;;;14.35;9.10;;;14.30;99.90;;;;;;5074534;28;20031;-54
2022/05/17 02:28:49;;;;;;;17.77;9.90;;;14.40;99.90;;;;;;5074452;28;20028;-54
2022/05/17 02:31:16;;;;;;;12.50;8.75;;;14.30;99.90;;;;;;5074552;28;20025;-54
2022/05/17 02:33:42;;;;;;;12.23;9.00;;;14.20;99.90;;;;;;5074373;28;20036;-54
2022/05/17 02:36:08;;;;;;;14.75;8.90;;;14.10;99.90;;;;;;5074575;28;20592;-54
2022/05/17 02:38:33;;;;;;;16.00;9.85;;;14.20;99.90;;;;;;5074335;28;20026;-54
2022/05/17 02:41:00;;;;;;;15.32;9.88;;;14.20;99.90;;;;;;5073613;28;20056;-54
2022/05/17 02:43:25;;;;;;;13.73;8.95;;;14.20;99.90;;;;;;5074330;28;20417;-54
2022/05/17 02:45:53;;;;;;;13.75;9.35;;;14.20;99.90;;;;;;5074264;28;20503;-54
2022/05/17 02:48:19;;;;;;;13.85;9.35;;;14.20;99.90;;;;;;5074847;28;20033;-54
2022/05/17 02:50:45;;;;;;;11.32;8.85;;;14.20;99.90;;;;;;5074296;28;20036;-54
2022/05/17 02:53:11;;;;;;;14.30;8.95;;;14.10;99.90;;;;;;5074290;28;20144;-54
2022/05/17 02:55:37;;;;;;;13.25;8.82;;;14.00;99.90;;;;;;5074247;28;20021;-54
2022/05/17 02:58:03;;;;;;;8.75;7.85;;;13.90;99.90;;;;;;5074171;28;20041;-54
2022/05/17 03:00:28;;;;;;;12.68;9.13;;;14.00;99.90;;;;;;5073947;28;20099;-54
2022/05/17 03:02:55;;;;;;;15.45;9.00;;;14.00;99.90;;;;;;5074471;28;20028;-54
2022/05/17 03:05:21;;;;;;;13.63;9.10;;;14.10;99.90;;;;;;5074027;28;20033;-54
2022/05/17 03:07:48;;;;;;;11.13;8.90;;;14.10;99.90;;;;;;5074000;28;20126;-54
2022/05/17 03:10:14;;;;;;;11.02;8.52;;;14.10;99.90;;;;;;5073961;28;20021;-54
2022/05/17 03:12:40;;;;;;;9.98;8.00;;;14.00;99.90;;;;;;5074085;28;20477;-54
2022/05/17 03:15:07;;;;;;;10.27;8.05;;;14.00;99.90;;;;;;5074102;28;20067;-54
2022/05/17 03:17:33;;;;;;;12.27;8.13;;;13.90;99.90;;;;;;5073815;28;20070;-54
2022/05/17 03:19:59;;;;;;;11.35;8.77;;;13.90;99.90;;;;;;5073989;28;20032;-54
2022/05/17 03:22:25;;;;;;;11.68;8.18;;;13.90;99.90;;;;;;5073842;28;20470;-54
2022/05/17 03:24:51;;;;;;;12.63;8.35;;;14.00;99.90;;;;;;5073916;28;20039;-54
2022/05/17 03:27:19;;;;;;;12.43;8.75;;;13.90;99.90;;;;;;5073669;28;20037;-54
2022/05/17 03:29:45;;;;;;;12.70;8.05;;;13.80;99.90;;;;;;5074178;28;20025;-54
2022/05/17 03:32:11;;;;;;;9.98;7.90;;;13.90;99.90;;;;;;5073924;28;20511;-54
2022/05/17 03:34:38;;;;;;;12.52;8.43;;;13.90;99.90;;;;;;5073389;28;20118;-54
2022/05/17 03:37:04;;;;;;;13.43;8.15;;;13.90;99.90;;;;;;5073641;28;20055;-54
2022/05/17 03:39:30;;;;;;;10.02;8.35;;;13.90;99.90;;;;;;5073902;28;20139;-54
2022/05/17 03:41:56;;;;;;;11.45;8.40;;;13.90;99.90;;;;;;5073834;28;20052;-54
2022/05/17 03:44:22;;;;;;;12.48;8.23;;;13.90;99.90;;;;;;5073734;28;20025;-54
2022/05/17 03:46:48;;;;;;;15.10;8.45;;;14.00;99.90;;;;;;5073866;28;20060;-54
2022/05/17 03:49:14;;;;;;;11.73;8.02;;;14.00;99.90;;;;;;5073856;28;20115;-54
2022/05/17 03:51:40;;;;;;;13.65;8.80;;;14.00;99.90;;;;;;5073745;28;20031;-54
2022/05/17 03:54:07;;;;;;;12.27;8.85;;;14.00;99.90;;;;;;5077057;28;20040;-54
2022/05/17 03:56:33;;;;;;;14.55;9.57;;;14.00;99.90;;;;;;5076866;28;20071;-54
2022/05/17 03:58:59;;;;;;;13.95;9.27;;;14.10;99.90;;;;;;5077196;28;20029;-54
2022/05/17 04:01:25;;;;;;;11.40;9.18;;;14.20;99.90;;;;;;5077078;28;20385;-54
2022/05/17 04:03:51;;;;;;;13.95;7.93;;;14.20;99.90;;;;;;5076973;28;20104;-54
2022/05/17 04:06:19;;;;;;;11.30;8.25;;;14.30;99.90;;;;;;5077015;28;20563;-54
2022/05/17 04:08:45;;;;;;;12.27;8.55;;;14.30;99.90;;;;;;5076983;28;20032;-54
2022/05/17 04:11:11;;;;;;;10.60;8.15;;;14.30;99.90;;;;;;5076665;28;20055;-54
2022/05/17 04:13:37;;;;;;;12.35;7.88;;;14.40;99.90;;;;;;5077010;28;20059;-54
2022/05/17 04:16:03;;;;;;;12.05;8.73;;;14.50;99.90;;;;;;5076810;28;20037;-54
2022/05/17 04:18:29;;;;;;;14.13;9.20;;;14.60;99.90;;;;;;5076843;28;20063;-54
2022/05/17 04:21:00;;;;;;;10.02;8.52;;;14.70;99.90;;;;;;5076760;28;20033;-54
2022/05/17 04:23:26;;;;;;;16.35;9.63;;;14.80;99.90;;;;;;5076771;28;20021;-54
2022/05/17 04:25:52;;;;;;;18.90;9.10;;;15.00;99.90;;;;;;5076529;28;20040;-54
2022/05/17 04:28:18;;;;;;;14.63;9.45;;;15.10;99.90;;;;;;5076879;28;20032;-54
2022/05/17 04:30:44;;;;;;;17.38;9.85;;;15.20;99.90;;;;;;5076286;28;20037;-54
2022/05/17 04:33:11;;;;;;;28.40;11.65;;;15.30;99.90;;;;;;5076495;28;20028;-54
2022/05/17 04:35:39;;;;;;;21.00;10.75;;;15.40;99.90;;;;;;5076247;28;20048;-54
2022/05/17 04:38:06;;;;;;;20.90;11.65;;;15.50;99.90;;;;;;5076368;28;20024;-54
2022/05/17 04:40:33;;;;;;;27.23;12.63;;;15.70;99.90;;;;;;5076292;28;20032;-54
2022/05/17 04:43:00;;;;;;;24.73;11.55;;;15.70;99.90;;;;;;5076165;28;20119;-54
2022/05/17 04:45:26;;;;;;;24.98;11.15;;;15.80;99.90;;;;;;5076085;28;20031;-54
2022/05/17 04:47:52;;;;;;;21.25;10.10;;;15.90;99.90;;;;;;5076217;28;20094;-54
2022/05/17 04:50:19;;;;;;;16.27;10.15;;;16.10;99.90;;;;;;5076429;28;20044;-54
2022/05/17 04:52:47;;;;;;;19.50;8.52;;;16.10;99.90;;;;;;5075924;28;20048;-54
2022/05/17 04:55:15;;;;;;;20.52;10.80;;;16.30;99.90;;;;;;5076219;28;20547;-54
2022/05/17 04:57:41;;;;;;;27.50;9.95;;;16.30;99.90;;;;;;5076302;28;20025;-54
2022/05/17 05:00:11;;;;;;;30.90;12.00;;;16.50;99.90;;;;;;5075634;28;20033;-54
2022/05/17 05:02:37;;;;;;;18.90;9.77;;;16.60;99.90;;;;;;5076192;28;20025;-54
2022/05/17 05:05:05;;;;;;;27.33;12.63;;;16.70;99.90;;;;;;5075481;28;20012;-54
2022/05/17 05:07:31;;;;;;;18.85;10.50;;;16.90;99.90;;;;;;5075551;28;20123;-54
2022/05/17 05:10:00;;;;;;;22.25;10.88;;;17.10;99.90;;;;;;5075778;28;20033;-54
2022/05/17 05:12:26;;;;;;;24.77;12.57;;;17.40;99.90;;;;;;5075495;28;20062;-54
2022/05/17 05:14:52;;;;;;;42.55;23.42;;;17.40;99.90;;;;;;5069116;28;20032;-55
2022/05/17 05:17:30;;;;;;;25.77;14.82;;;17.60;99.90;;;;;;5067186;28;20028;-54
2022/05/17 05:19:57;;;;;;;21.90;10.50;;;17.80;99.90;;;;;;5071133;28;20161;-54
2022/05/17 05:22:23;;;;;;;21.88;10.98;;;17.90;99.90;;;;;;5072858;28;20360;-55
2022/05/17 05:24:49;;;;;;;25.38;9.13;;;18.10;99.90;;;;;;5070635;28;20028;-55
2022/05/17 05:27:16;;;;;;;19.60;9.63;;;18.10;99.90;;;;;;5067187;28;20053;-54
2022/05/17 05:29:42;;;;;;;11.38;8.98;;;18.00;99.90;;;;;;5071295;28;20031;-54
2022/05/17 05:32:08;;;;;;;17.33;8.73;;;17.90;99.90;;;;;;5072099;28;20401;-54
2022/05/17 05:34:34;;;;;;;14.52;9.45;;;17.80;99.90;;;;;;5075088;28;20045;-54
2022/05/17 05:37:01;;;;;;;17.35;8.32;;;17.70;99.90;;;;;;5065407;28;20062;-54
2022/05/17 05:39:27;;;;;;;13.05;8.32;;;17.50;99.90;;;;;;5059807;28;20501;-54
2022/05/17 05:41:53;;;;;;;18.45;10.05;;;17.40;99.90;;;;;;5069986;28;20020;-54
2022/05/17 05:44:19;;;;;;;25.80;10.68;;;17.50;99.90;;;;;;5084079;28;20453;-54
2022/05/17 05:46:45;;;;;;;21.20;10.13;;;17.50;99.90;;;;;;5078935;28;20043;-55
2022/05/17 05:49:12;;;;;;;17.45;10.05;;;17.50;99.90;;;;;;5058316;28;20044;-54
2022/05/17 05:51:40;;;;;;;22.02;11.35;;;17.30;99.90;;;;;;5068399;28;20032;-54
2022/05/17 05:54:07;;;;;;;16.00;10.80;;;17.30;99.90;;;;;;5073810;28;20080;-54
2022/05/17 05:56:33;;;;;;;17.65;11.68;;;17.20;99.90;;;;;;5089192;28;20042;-54
2022/05/17 05:58:59;;;;;;;22.48;12.57;;;17.30;99.90;;;;;;5078526;28;20025;-54
2022/05/17 06:01:26;;;;;;;16.92;11.73;;;17.00;99.90;;;;;;5074190;28;20354;-54
2022/05/17 06:03:53;;;;;;;26.70;12.60;;;16.90;99.90;;;;;;5067264;28;20021;-54
2022/05/17 06:06:19;;;;;;;19.98;13.55;;;16.90;99.90;;;;;;5070167;28;20066;-54
2022/05/17 06:08:45;;;;;;;24.45;14.98;;;16.90;99.90;;;;;;5072217;28;20033;-54
2022/05/17 06:11:11;;;;;;;21.67;13.23;;;17.00;99.90;;;;;;5075101;28;20425;-54
2022/05/17 06:13:37;;;;;;;22.42;13.25;;;17.10;99.90;;;;;;5074912;28;20044;-54
2022/05/17 06:16:03;;;;;;;19.80;14.10;;;17.00;99.90;;;;;;5060169;28;20039;-54
2022/05/17 06:18:29;;;;;;;23.42;13.57;;;17.10;99.90;;;;;;5065908;28;20035;-54
2022/05/17 06:20:56;;;;;;;22.75;14.32;;;17.10;99.90;;;;;;5073311;28;20020;-55
2022/05/17 06:23:25;;;;;;;29.52;15.38;;;17.20;99.90;;;;;;5071033;28;20471;-55
2022/05/17 06:25:52;;;;;;;26.52;14.55;;;17.20;99.90;;;;;;5069644;28;20048;-54
2022/05/17 06:28:19;;;;;;;24.80;14.07;;;17.40;99.90;;;;;;5067119;28;20076;-54
2022/05/17 06:30:45;;;;;;;22.23;12.68;;;17.50;99.90;;;;;;5055775;28;20077;-54
2022/05/17 06:33:12;;;;;;;24.67;13.48;;;17.70;99.90;;;;;;5072828;28;20024;-54
2022/05/17 06:35:41;;;;;;;17.95;11.63;;;18.00;99.90;;;;;;5071518;28;20097;-54
2022/05/17 06:38:07;;;;;;;23.77;12.73;;;18.10;99.90;;;;;;5073186;28;20034;-55
2022/05/17 06:40:34;;;;;;;25.35;13.73;;;18.40;99.90;;;;;;5074018;28;20035;-54
2022/05/17 06:43:03;;;;;;;23.25;14.25;;;18.60;99.90;;;;;;5074347;28;20114;-54
2022/05/17 06:45:29;;;;;;;19.50;12.35;;;18.80;99.90;;;;;;5073671;28;20028;-54
2022/05/17 06:47:57;;;;;;;24.08;13.93;;;18.90;99.90;;;;;;5073690;28;20029;-54
2022/05/17 06:50:22;;;;;;;27.25;14.45;;;19.20;99.90;;;;;;5064818;28;20029;-54
2022/05/17 06:52:49;;;;;;;43.88;19.80;;;19.50;99.90;;;;;;5072282;28;20048;-55
2022/05/17 06:55:15;;;;;;;42.58;17.70;;;19.80;99.90;;;;;;5070907;28;20489;-55
2022/05/17 06:57:41;;;;;;;43.22;20.23;;;20.20;99.90;;;;;;5067781;28;20044;-54
2022/05/17 07:00:11;;;;;;;39.95;18.30;;;20.50;99.90;;;;;;5066202;28;20029;-54
2022/05/17 07:02:38;;;;;;;26.33;14.93;;;20.70;99.90;;;;;;5080224;28;20031;-55
2022/05/17 07:05:05;;;;;;;27.92;15.10;;;20.80;99.90;;;;;;5070183;28;20025;-55
2022/05/17 07:07:31;;;;;;;29.65;13.25;;;21.40;99.90;;;;;;5060728;28;20032;-55
2022/05/17 07:15:26;;;;;;;32.72;13.18;;;22.60;99.90;;;;;;5072542;28;20036;-55
2022/05/17 07:17:52;;;;;;;40.33;12.90;;;23.00;99.90;;;;;;5063183;28;20025;-55
2022/05/17 07:20:18;;;;;;;29.65;11.85;;;23.00;99.90;;;;;;5069018;28;20050;-55
2022/05/17 07:22:44;;;;;;;21.90;11.27;;;23.50;99.90;;;;;;5069466;28;20435;-55
2022/05/17 07:25:11;;;;;;;22.20;10.45;;;23.60;99.90;;;;;;5074372;28;20024;-55
2022/05/17 07:27:37;;;;;;;20.90;9.05;;;24.00;99.90;;;;;;5072114;28;20140;-55
2022/05/17 07:30:06;;;;;;;17.73;9.10;;;24.40;99.90;;;;;;5072414;28;20029;-55
2022/05/17 07:32:32;;;;;;;22.60;9.85;;;24.90;99.90;;;;;;5060179;28;20028;-55
2022/05/17 07:34:58;;;;;;;23.50;9.95;;;25.30;99.90;;;;;;5078161;28;20056;-55
2022/05/17 07:37:24;;;;;;;21.30;9.02;;;25.60;96.60;;;;;;5077931;28;20397;-55
2022/05/17 07:39:50;;;;;;;28.80;10.18;;;25.40;98.20;;;;;;5083052;28;20051;-55
2022/05/17 07:42:16;;;;;;;29.38;10.75;;;25.70;97.40;;;;;;5066492;28;20025;-55
2022/05/17 07:44:42;;;;;;;24.90;9.20;;;26.00;91.40;;;;;;5047586;28;20028;-55
2022/05/17 07:47:10;;;;;;;35.40;11.77;;;25.90;88.80;;;;;;5072419;28;20036;-55
2022/05/17 07:49:39;;;;;;;20.38;9.20;;;25.60;92.10;;;;;;5077575;28;20028;-55
2022/05/17 07:52:06;;;;;;;16.90;8.70;;;25.40;96.00;;;;;;5063598;28;20485;-55
2022/05/17 07:54:37;;;;;;;23.73;8.30;;;25.00;99.20;;;;;;5065508;28;20481;-55
2022/05/17 07:57:07;;;;;;;26.05;8.15;;;25.00;99.90;;;;;;5067634;28;20044;-55
2022/05/17 07:59:35;;;;;;;24.27;9.20;;;25.00;99.90;;;;;;5077404;28;20040;-55
2022/05/17 08:02:01;;;;;;;15.25;8.25;;;25.60;99.50;;;;;;5097968;28;20036;-55
2022/05/17 08:04:30;;;;;;;18.90;8.88;;;26.20;98.10;;;;;;5075814;28;20033;-55
2022/05/17 08:06:56;;;;;;;30.13;10.15;;;26.10;91.00;;;;;;5072450;28;20029;-55
2022/05/17 08:09:29;;;;;;;19.25;7.93;;;25.80;92.00;;;;;;5094064;28;20028;-55
2022/05/17 08:11:55;;;;;;;19.85;7.82;;;25.40;97.30;;;;;;5066637;28;20029;-55
2022/05/17 08:14:22;;;;;;;15.32;7.30;;;24.90;99.90;;;;;;5066752;28;20036;-55
2022/05/17 08:16:48;;;;;;;14.85;7.80;;;25.00;99.00;;;;;;5076643;28;20035;-55
2022/05/17 08:19:15;;;;;;;27.77;9.20;;;25.80;99.90;;;;;;5069484;28;20111;-55
2022/05/17 08:21:41;;;;;;;20.67;8.57;;;26.00;95.50;;;;;;5068060;28;20028;-55
2022/05/17 08:24:08;;;;;;;18.67;8.35;;;26.00;97.90;;;;;;5064735;28;20020;-55
2022/05/17 08:29:18;;;;;;;25.73;9.02;;;26.70;96.70;;;;;;5068475;28;20028;-55
2022/05/17 08:34:29;;;;;;;22.63;8.18;;;26.90;93.10;;;;;;5087967;28;20100;-55
2022/05/17 08:36:55;;;;;;;28.48;9.82;;;27.40;94.00;;;;;;5069313;28;20029;-55
2022/05/17 08:39:21;;;;;;;19.48;9.20;;;27.90;90.70;;;;;;5072063;28;20470;-55
2022/05/17 08:42:00;;;;;;;22.38;8.00;;;27.70;88.40;;;;;;5076852;28;20125;-55
2022/05/17 08:44:42;;;;;;;24.13;9.27;;;28.10;86.10;;;;;;5075830;28;20435;-55
2022/05/17 08:47:17;;;;;;;16.55;8.32;;;27.60;87.30;;;;;;5082686;28;20419;-55
2022/05/17 08:49:58;;;;;;;26.75;9.48;;;27.50;87.80;;;;;;5084401;28;20036;-56
2022/05/17 08:52:27;;;;;;;16.92;8.27;;;27.40;96.30;;;;;;5074047;28;20125;-55
2022/05/17 08:55:19;;;;;;;19.25;8.75;;;28.20;93.30;;;;;;5074364;28;20096;-55
2022/05/17 08:57:49;;;;;;;24.83;10.60;;;28.70;93.30;;;;;;5069415;28;20059;-55
2022/05/17 09:00:18;;;;;;;21.08;10.10;;;29.10;76.60;;;;;;5071143;28;20032;-56
2022/05/17 09:02:49;;;;;;;19.83;9.98;;;28.70;81.80;;;;;;5069077;28;20028;-56
2022/05/17 09:05:18;;;;;;;19.98;8.25;;;28.80;87.10;;;;;;5077356;28;20047;-56
2022/05/17 09:07:53;;;;;;;15.98;9.15;;;28.90;67.80;;;;;;5081517;28;20063;-56
2022/05/17 09:10:56;;;;;;;15.77;9.18;;;28.60;67.20;;;;;;5068731;28;20093;-56
2022/05/17 09:14:04;;;;;;;22.08;9.95;;;28.80;70.60;;;;;;5051739;28;20475;-56
2022/05/17 09:16:42;;;;;;;27.30;10.82;;;29.60;64.00;;;;;;5039608;28;20175;-56
2022/05/17 09:19:09;;;;;;;17.23;10.13;;;29.60;60.80;;;;;;5064949;28;20028;-56
2022/05/17 09:21:38;;;;;;;22.90;9.35;;;29.90;61.90;;;;;;5068594;28;20113;-56
2022/05/17 09:24:21;;;;;;;17.85;11.18;;;30.30;65.50;;;;;;5064467;28;20100;-56
2022/05/17 09:27:01;;;;;;;19.00;8.85;;;30.40;58.10;;;;;;5073534;28;20036;-56
2022/05/17 09:29:35;;;;;;;15.05;8.43;;;30.30;55.80;;;;;;5066444;28;20032;-56
2022/05/17 09:32:06;;;;;;;11.15;7.65;;;30.20;56.30;;;;;;5065421;28;20032;-56
2022/05/17 09:34:38;;;;;;;12.35;8.25;;;30.20;59.30;;;;;;5081739;28;20056;-56
2022/05/17 09:37:15;;;;;;;10.63;7.70;;;30.60;55.60;;;;;;5067392;28;20112;-56
2022/05/17 09:39:51;;;;;;;12.68;7.80;;;30.80;56.80;;;;;;5068885;28;20032;-56
2022/05/17 09:42:30;;;;;;;13.93;8.50;;;30.90;58.40;;;;;;5070243;28;20597;-56
2022/05/17 09:45:02;;;;;;;14.90;8.70;;;31.30;56.10;;;;;;5069225;28;20079;-56
2022/05/17 09:47:34;;;;;;;14.95;8.75;;;30.70;60.90;;;;;;5073379;28;20039;-56
2022/05/17 09:53:10;;;;;;;17.45;7.90;;;31.60;54.20;;;;;;5066878;28;20025;-56
2022/05/17 09:55:37;;;;;;;11.40;7.25;;;31.90;60.70;;;;;;5071517;28;20029;-56
2022/05/17 09:58:07;;;;;;;20.00;8.75;;;31.80;51.00;;;;;;5074447;28;20115;-56
2022/05/17 10:00:42;;;;;;;9.38;6.40;;;31.40;52.90;;;;;;5066643;28;20029;-56
2022/05/17 10:03:31;;;;;;;10.75;6.90;;;31.80;52.60;;;;;;5066787;28;20048;-56
2022/05/17 10:06:00;;;;;;;19.02;8.45;;;31.90;50.50;;;;;;5070907;28;20097;-56
2022/05/17 10:08:37;;;;;;;11.57;7.10;;;31.50;55.10;;;;;;5072954;28;20462;-56
2022/05/17 10:11:14;;;;;;;10.10;7.10;;;31.60;54.00;;;;;;5073831;28;20083;-56
2022/05/17 10:14:01;;;;;;;8.25;7.00;;;32.00;58.50;;;;;;5070670;28;20478;-56
2022/05/17 10:16:36;;;;;;;25.52;8.70;;;31.80;53.00;;;;;;5069318;28;20098;-56
2022/05/17 10:19:05;;;;;;;16.23;8.02;;;31.60;54.70;;;;;;5071462;28;20025;-56
2022/05/17 10:21:55;;;;;;;12.13;7.45;;;32.00;53.20;;;;;;5071446;28;20394;-56
2022/05/17 10:24:40;;;;;;;10.23;7.05;;;31.40;52.70;;;;;;5075817;28;20020;-56
2022/05/17 10:27:16;;;;;;;10.98;7.43;;;30.30;53.30;;;;;;5077061;28;20051;-56
2022/05/17 10:29:46;;;;;;;14.00;8.43;;;30.30;55.30;;;;;;5094456;28;20040;-56
2022/05/17 10:32:30;;;;;;;12.40;7.93;;;30.60;57.40;;;;;;5078305;28;20402;-56
2022/05/17 10:35:09;;;;;;;18.40;8.32;;;30.60;56.60;;;;;;5074478;28;20127;-56
2022/05/17 10:38:08;;;;;;;11.73;6.97;;;30.80;56.30;;;;;;5073675;28;20043;-56
2022/05/17 10:40:40;;;;;;;11.05;7.30;;;30.40;54.00;;;;;;5054024;28;20502;-56
2022/05/17 10:43:06;;;;;;;10.95;7.75;;;30.30;58.60;;;;;;5054095;28;20037;-56
2022/05/17 10:45:33;;;;;;;12.23;7.68;;;30.90;57.30;;;;;;5053793;28;20112;-56
2022/05/17 10:48:36;;;;;;;14.20;7.68;;;30.90;54.70;;;;;;5054530;28;20533;-56
2022/05/17 10:51:18;;;;;;;15.13;8.13;;;31.30;53.50;;;;;;4972182;28;20051;-56
2022/05/17 10:54:02;;;;;;;22.52;8.60;;;31.10;54.90;;;;;;4969459;28;20544;-56
2022/05/17 10:56:55;;;;;;;19.23;8.57;;;31.20;56.30;;;;;;4967855;28;20036;-56
2022/05/17 10:59:55;;;;;;;13.15;7.43;;;30.60;55.30;;;;;;4967630;28;20038;-56
2022/05/17 11:03:04;;;;;;;16.38;7.47;;;29.60;58.30;;;;;;4966778;28;20038;-56
2022/05/17 11:06:01;;;;;;;13.73;7.90;;;29.50;63.60;;;;;;4968686;28;20177;-56
2022/05/17 11:08:41;;;;;;;16.10;8.20;;;29.50;64.80;;;;;;4996039;28;20049;-56
2022/05/17 11:11:37;;;;;;;19.50;8.18;;;29.20;67.50;;;;;;4992558;28;20038;-56
2022/05/17 11:14:30;;;;;;;18.15;7.80;;;29.10;70.40;;;;;;4972787;28;20207;-56
2022/05/17 11:17:05;;;;;;;13.45;7.15;;;28.70;82.00;;;;;;4974726;28;20544;-56
2022/05/17 11:19:40;;;;;;;19.30;9.15;;;28.10;80.00;;;;;;4966163;28;20031;-56
2022/05/17 11:22:21;;;;;;;19.60;7.88;;;27.80;78.30;;;;;;4974273;28;20122;-56
2022/05/17 11:25:00;;;;;;;19.00;8.02;;;27.50;78.40;;;;;;5004969;28;20068;-55
2022/05/17 11:28:06;;;;;;;18.13;7.55;;;27.40;87.00;;;;;;5059969;28;20123;-55
2022/05/17 11:30:47;;;;;;;14.68;7.65;;;27.10;88.40;;;;;;5080462;28;20044;-55
2022/05/17 11:33:39;;;;;;;18.67;8.63;;;26.80;92.50;;;;;;5062155;28;20478;-55
2022/05/17 11:36:12;;;;;;;15.10;8.38;;;26.30;95.60;;;;;;5059969;28;20029;-55
2022/05/17 11:38:38;;;;;;;17.73;8.65;;;26.20;96.70;;;;;;5073973;28;20028;-55
2022/05/17 11:41:13;;;;;;;16.25;7.93;;;25.90;99.40;;;;;;5066601;28;20413;-55
2022/05/17 11:43:50;;;;;;;13.15;8.18;;;25.50;99.90;;;;;;5069047;28;20035;-55
2022/05/17 11:46:28;;;;;;;23.80;8.60;;;25.30;99.90;;;;;;5067532;28;20352;-55
2022/05/17 11:49:18;;;;;;;15.07;8.10;;;25.20;99.90;;;;;;5058360;28;20029;-55
2022/05/17 11:51:59;;;;;;;15.82;7.90;;;25.00;99.90;;;;;;5070029;28;20489;-55
2022/05/17 11:54:46;;;;;;;15.65;7.75;;;24.80;99.90;;;;;;5062151;28;20032;-55
2022/05/17 11:57:16;;;;;;;13.70;8.32;;;24.70;99.90;;;;;;5076240;28;20560;-55
2022/05/17 11:59:58;;;;;;;10.68;7.55;;;24.80;99.90;;;;;;5073837;28;20081;-55
2022/05/17 12:02:49;;;;;;;15.77;8.70;;;24.70;99.90;;;;;;5074133;28;20025;-55
2022/05/17 12:05:50;;;;;;;12.70;7.60;;;24.90;99.90;;;;;;5069664;28;20016;-55
2022/05/17 12:08:42;;;;;;;13.18;7.70;;;25.30;99.90;;;;;;4990424;28;20047;-55
2022/05/17 12:11:11;;;;;;;16.83;9.50;;;25.70;99.90;;;;;;4973255;28;20039;-55
2022/05/17 12:13:48;;;;;;;14.80;9.02;;;26.10;99.90;;;;;;4980944;28;20528;-55
2022/05/17 12:16:21;;;;;;;23.85;10.02;;;26.40;99.90;;;;;;4973299;28;20187;-55
2022/05/17 12:18:59;;;;;;;21.95;8.05;;;26.70;99.90;;;;;;4978943;28;20484;-55
2022/05/17 12:22:01;;;;;;;17.27;8.90;;;26.60;99.50;;;;;;4978300;28;20042;-55
2022/05/17 12:25:03;;;;;;;23.40;9.38;;;26.70;99.90;;;;;;4965582;28;20027;-55
2022/05/17 12:27:32;;;;;;;11.65;7.25;;;27.40;97.10;;;;;;4957961;28;20123;-55
2022/05/17 12:32:52;;;;;;;14.68;6.60;;;28.70;90.70;;;;;;4965542;28;20054;-55
2022/05/17 12:35:26;;;;;;;15.75;7.60;;;28.80;78.70;;;;;;4970035;28;20422;-56
2022/05/17 12:37:53;;;;;;;15.50;7.20;;;28.70;72.30;;;;;;4958024;28;20039;-55
2022/05/17 12:43:13;;;;;;;20.85;8.43;;;28.70;84.20;;;;;;4997694;28;20064;-56
2022/05/17 12:45:43;;;;;;;10.88;6.95;;;28.40;78.90;;;;;;5027723;28;20578;-55
2022/05/17 12:48:14;;;;;;;;;;;28.70;76.70;;;;;;4994975;28;20527;-56
2022/05/17 12:50:49;;;;;;;12.35;7.13;;;28.30;77.70;;;;;;5013548;28;19991;-55
2022/05/17 12:53:36;;;;;;;15.70;6.72;;;28.80;78.60;;;;;;5011000;28;20447;-56
2022/05/17 12:56:10;;;;;;;13.73;6.68;;;29.00;77.20;;;;;;5021201;28;20053;-56
2022/05/17 12:58:51;;;;;;;23.15;11.32;;;29.50;73.40;;;;;;5063529;28;20123;-56
2022/05/17 13:01:28;;;;;;;9.88;6.28;;;29.70;68.80;;;;;;5085370;28;20028;-56
2022/05/17 13:03:57;;;;;;;10.57;5.35;;;29.60;58.10;;;;;;5095289;28;20050;-56
2022/05/17 13:06:35;;;;;;;13.85;7.18;;;29.60;61.30;;;;;;5095843;28;20028;-56
2022/05/17 13:09:03;;;;;;;24.33;7.07;;;28.90;66.30;;;;;;5081391;28;20123;-56
2022/05/17 13:11:29;;;;;;;11.75;5.45;;;29.40;66.40;;;;;;5096001;28;20064;-56
2022/05/17 13:13:58;;;;;;;22.92;7.32;;;29.20;61.30;;;;;;5096392;28;20492;-56
2022/05/17 13:16:41;;;;;;;10.80;4.85;;;29.30;63.10;;;;;;5095694;28;20067;-56
2022/05/17 13:19:15;;;;;;;12.18;5.85;;;28.70;62.60;;;;;;5095816;28;20055;-56
2022/05/17 13:21:45;;;;;;;12.15;5.57;;;28.80;66.10;;;;;;5096052;28;20032;-56